sensor_id;sensor_type;location;lat;lon;timestamp;P1;durP1;ratioP1;P2;durP2;ratioP2
5702;SDS011;2876;51.738;10.050;2023-07-22T00:01:50;22.43;;;13.03;;
5702;SDS011;2876;51.738;10.050;2023-07-22T00:07:52;21.43;;;12.90;;
5702;SDS011;2876;51.738;10.050;2023-07-22T00:13:55;15.97;;;13.10;;
5702;SDS011;2876;51.738;10.050;2023-07-22T00:19:56;25.10;;;12.63;;
5702;SDS011;2876;51.738;10.050;2023-07-22T00:25:58;17.00;;;12.37;;
5702;SDS011;2876;51.738;10.050;2023-07-22T00:32:00;14.00;;;12.17;;
5702;SDS011;2876;51.738;10.050;2023-07-22T00:38:02;16.03;;;12.87;;
5702;SDS011;2876;51.738;10.050;2023-07-22T00:44:05;20.40;;;15.03;;
5702;SDS011;2876;51.738;10.050;2023-07-22T00:50:07;27.47;;;15.53;;
5702;SDS011;2876;51.738;10.050;2023-07-22T00:56:09;24.57;;;15.33;;
5702;SDS011;2876;51.738;10.050;2023-07-22T01:02:11;25.00;;;18.80;;
5702;SDS011;2876;51.738;10.050;2023-07-22T01:08:13;24.27;;;18.50;;
5702;SDS011;2876;51.738;10.050;2023-07-22T01:14:15;25.17;;;18.00;;
5702;SDS011;2876;51.738;10.050;2023-07-22T01:20:17;19.50;;;16.60;;
5702;SDS011;2876;51.738;10.050;2023-07-22T01:26:20;23.40;;;18.07;;
5702;SDS011;2876;51.738;10.050;2023-07-22T01:32:22;30.77;;;18.20;;
5702;SDS011;2876;51.738;10.050;2023-07-22T01:38:24;21.53;;;16.47;;
5702;SDS011;2876;51.738;10.050;2023-07-22T01:44:26;36.57;;;16.40;;
5702;SDS011;2876;51.738;10.050;2023-07-22T01:50:28;16.00;;;13.40;;
5702;SDS011;2876;51.738;10.050;2023-07-22T01:56:30;21.50;;;13.50;;
5702;SDS011;2876;51.738;10.050;2023-07-22T02:02:32;20.60;;;13.30;;
5702;SDS011;2876;51.738;10.050;2023-07-22T02:08:34;16.17;;;12.53;;
5702;SDS011;2876;51.738;10.050;2023-07-22T02:14:37;21.27;;;13.40;;
5702;SDS011;2876;51.738;10.050;2023-07-22T02:20:42;24.57;;;14.23;;
5702;SDS011;2876;51.738;10.050;2023-07-22T02:26:44;21.47;;;13.80;;
5702;SDS011;2876;51.738;10.050;2023-07-22T02:32:46;25.00;;;13.80;;
5702;SDS011;2876;51.738;10.050;2023-07-22T02:38:48;19.63;;;12.73;;
5702;SDS011;2876;51.738;10.050;2023-07-22T02:44:50;19.90;;;12.33;;
5702;SDS011;2876;51.738;10.050;2023-07-22T02:50:53;30.90;;;12.60;;
5702;SDS011;2876;51.738;10.050;2023-07-22T02:56:55;19.03;;;11.93;;
5702;SDS011;2876;51.738;10.050;2023-07-22T03:02:57;22.17;;;12.47;;
5702;SDS011;2876;51.738;10.050;2023-07-22T03:09:02;22.33;;;11.93;;
5702;SDS011;2876;51.738;10.050;2023-07-22T03:15:06;15.70;;;11.37;;
5702;SDS011;2876;51.738;10.050;2023-07-22T03:21:10;19.43;;;12.73;;
5702;SDS011;2876;51.738;10.050;2023-07-22T03:27:12;19.97;;;11.83;;
5702;SDS011;2876;51.738;10.050;2023-07-22T03:33:16;20.70;;;12.63;;
5702;SDS011;2876;51.738;10.050;2023-07-22T03:39:18;17.53;;;12.47;;
5702;SDS011;2876;51.738;10.050;2023-07-22T03:45:21;14.90;;;10.87;;
5702;SDS011;2876;51.738;10.050;2023-07-22T03:51:24;20.73;;;12.17;;
5702;SDS011;2876;51.738;10.050;2023-07-22T03:57:26;21.93;;;11.70;;
5702;SDS011;2876;51.738;10.050;2023-07-22T04:03:29;24.57;;;12.10;;
5702;SDS011;2876;51.738;10.050;2023-07-22T04:09:31;20.73;;;11.80;;
5702;SDS011;2876;51.738;10.050;2023-07-22T04:15:33;20.70;;;12.63;;
5702;SDS011;2876;51.738;10.050;2023-07-22T04:21:35;16.40;;;10.67;;
5702;SDS011;2876;51.738;10.050;2023-07-22T04:27:37;13.50;;;10.07;;
5702;SDS011;2876;51.738;10.050;2023-07-22T04:33:39;13.93;;;9.87;;
5702;SDS011;2876;51.738;10.050;2023-07-22T04:39:46;16.90;;;9.50;;
5702;SDS011;2876;51.738;10.050;2023-07-22T04:45:50;13.93;;;8.73;;
5702;SDS011;2876;51.738;10.050;2023-07-22T04:51:52;23.83;;;10.00;;
5702;SDS011;2876;51.738;10.050;2023-07-22T04:57:54;14.17;;;9.03;;
5702;SDS011;2876;51.738;10.050;2023-07-22T05:03:56;19.10;;;9.13;;
5702;SDS011;2876;51.738;10.050;2023-07-22T05:09:59;16.50;;;9.80;;
5702;SDS011;2876;51.738;10.050;2023-07-22T05:16:01;14.83;;;8.50;;
5702;SDS011;2876;51.738;10.050;2023-07-22T05:22:03;16.57;;;9.67;;
5702;SDS011;2876;51.738;10.050;2023-07-22T05:28:05;17.27;;;9.67;;
5702;SDS011;2876;51.738;10.050;2023-07-22T05:34:07;10.50;;;8.40;;
5702;SDS011;2876;51.738;10.050;2023-07-22T05:40:09;12.93;;;9.03;;
5702;SDS011;2876;51.738;10.050;2023-07-22T05:46:12;12.57;;;9.40;;
5702;SDS011;2876;51.738;10.050;2023-07-22T05:52:14;14.40;;;8.70;;
5702;SDS011;2876;51.738;10.050;2023-07-22T05:58:16;13.00;;;7.53;;
5702;SDS011;2876;51.738;10.050;2023-07-22T06:04:19;11.30;;;8.33;;
5702;SDS011;2876;51.738;10.050;2023-07-22T06:10:21;11.77;;;8.13;;
5702;SDS011;2876;51.738;10.050;2023-07-22T06:16:23;13.53;;;8.80;;
5702;SDS011;2876;51.738;10.050;2023-07-22T06:22:25;12.13;;;7.97;;
5702;SDS011;2876;51.738;10.050;2023-07-22T06:28:27;10.00;;;6.50;;
5702;SDS011;2876;51.738;10.050;2023-07-22T06:34:29;16.30;;;8.50;;
5702;SDS011;2876;51.738;10.050;2023-07-22T06:40:31;9.57;;;7.37;;
5702;SDS011;2876;51.738;10.050;2023-07-22T06:46:33;9.67;;;7.07;;
5702;SDS011;2876;51.738;10.050;2023-07-22T06:52:35;11.40;;;8.33;;
5702;SDS011;2876;51.738;10.050;2023-07-22T06:58:37;9.27;;;7.90;;
5702;SDS011;2876;51.738;10.050;2023-07-22T07:04:39;13.83;;;8.57;;
5702;SDS011;2876;51.738;10.050;2023-07-22T07:10:41;10.70;;;7.77;;
5702;SDS011;2876;51.738;10.050;2023-07-22T07:16:43;8.70;;;7.30;;
5702;SDS011;2876;51.738;10.050;2023-07-22T07:22:46;8.87;;;7.37;;
5702;SDS011;2876;51.738;10.050;2023-07-22T07:28:48;8.60;;;7.20;;
5702;SDS011;2876;51.738;10.050;2023-07-22T07:34:52;10.87;;;7.10;;
5702;SDS011;2876;51.738;10.050;2023-07-22T07:40:55;13.47;;;8.13;;
5702;SDS011;2876;51.738;10.050;2023-07-22T07:47:02;13.77;;;8.00;;
5702;SDS011;2876;51.738;10.050;2023-07-22T07:53:04;17.23;;;9.13;;
5702;SDS011;2876;51.738;10.050;2023-07-22T07:59:06;17.70;;;8.00;;
5702;SDS011;2876;51.738;10.050;2023-07-22T08:05:10;8.10;;;6.80;;
5702;SDS011;2876;51.738;10.050;2023-07-22T08:11:14;12.87;;;8.50;;
5702;SDS011;2876;51.738;10.050;2023-07-22T08:17:16;9.70;;;7.57;;
5702;SDS011;2876;51.738;10.050;2023-07-22T08:23:18;16.37;;;8.03;;
5702;SDS011;2876;51.738;10.050;2023-07-22T08:29:21;10.87;;;7.70;;
5702;SDS011;2876;51.738;10.050;2023-07-22T08:35:23;11.43;;;7.87;;
5702;SDS011;2876;51.738;10.050;2023-07-22T08:41:25;12.10;;;8.43;;
5702;SDS011;2876;51.738;10.050;2023-07-22T08:47:29;8.53;;;7.63;;
5702;SDS011;2876;51.738;10.050;2023-07-22T08:53:34;12.50;;;9.37;;
5702;SDS011;2876;51.738;10.050;2023-07-22T08:59:35;8.73;;;7.70;;
5702;SDS011;2876;51.738;10.050;2023-07-22T09:05:38;12.03;;;8.43;;
5702;SDS011;2876;51.738;10.050;2023-07-22T09:11:41;16.70;;;8.10;;
5702;SDS011;2876;51.738;10.050;2023-07-22T09:17:44;9.67;;;8.20;;
5702;SDS011;2876;51.738;10.050;2023-07-22T09:23:46;13.07;;;8.00;;
5702;SDS011;2876;51.738;10.050;2023-07-22T09:29:48;11.60;;;8.60;;
5702;SDS011;2876;51.738;10.050;2023-07-22T09:35:51;11.60;;;8.50;;
5702;SDS011;2876;51.738;10.050;2023-07-22T09:41:53;11.57;;;9.47;;
5702;SDS011;2876;51.738;10.050;2023-07-22T09:47:55;11.50;;;8.97;;
5702;SDS011;2876;51.738;10.050;2023-07-22T09:54:02;13.37;;;8.23;;
5702;SDS011;2876;51.738;10.050;2023-07-22T10:00:05;11.90;;;8.90;;
5702;SDS011;2876;51.738;10.050;2023-07-22T10:06:10;13.23;;;7.87;;
5702;SDS011;2876;51.738;10.050;2023-07-22T10:12:14;12.00;;;8.47;;
5702;SDS011;2876;51.738;10.050;2023-07-22T10:18:16;9.00;;;7.17;;
5702;SDS011;2876;51.738;10.050;2023-07-22T10:24:20;9.93;;;8.53;;
5702;SDS011;2876;51.738;10.050;2023-07-22T10:30:23;9.80;;;7.70;;
5702;SDS011;2876;51.738;10.050;2023-07-22T10:36:28;11.43;;;8.20;;
5702;SDS011;2876;51.738;10.050;2023-07-22T10:42:31;10.27;;;7.67;;
5702;SDS011;2876;51.738;10.050;2023-07-22T10:48:34;14.80;;;9.27;;
5702;SDS011;2876;51.738;10.050;2023-07-22T10:54:39;10.43;;;7.40;;
5702;SDS011;2876;51.738;10.050;2023-07-22T11:00:41;11.20;;;7.30;;
5702;SDS011;2876;51.738;10.050;2023-07-22T11:12:45;8.67;;;7.00;;
5702;SDS011;2876;51.738;10.050;2023-07-22T11:18:49;8.97;;;6.97;;
5702;SDS011;2876;51.738;10.050;2023-07-22T11:24:52;9.17;;;6.73;;
5702;SDS011;2876;51.738;10.050;2023-07-22T11:30:54;11.50;;;6.93;;
5702;SDS011;2876;51.738;10.050;2023-07-22T11:36:56;8.10;;;7.27;;
5702;SDS011;2876;51.738;10.050;2023-07-22T11:42:59;7.60;;;6.60;;
5702;SDS011;2876;51.738;10.050;2023-07-22T11:49:01;7.63;;;5.60;;
5702;SDS011;2876;51.738;10.050;2023-07-22T11:55:04;7.53;;;5.90;;
5702;SDS011;2876;51.738;10.050;2023-07-22T12:01:09;9.60;;;6.47;;
5702;SDS011;2876;51.738;10.050;2023-07-22T12:07:22;6.03;;;5.43;;
5702;SDS011;2876;51.738;10.050;2023-07-22T12:13:37;7.53;;;6.60;;
5702;SDS011;2876;51.738;10.050;2023-07-22T12:19:50;7.00;;;6.17;;
5702;SDS011;2876;51.738;10.050;2023-07-22T12:25:54;6.97;;;5.70;;
5702;SDS011;2876;51.738;10.050;2023-07-22T12:31:56;6.37;;;5.37;;
5702;SDS011;2876;51.738;10.050;2023-07-22T12:37:58;6.60;;;5.60;;
5702;SDS011;2876;51.738;10.050;2023-07-22T12:44:00;5.40;;;4.90;;
5702;SDS011;2876;51.738;10.050;2023-07-22T12:50:03;4.77;;;4.30;;
5702;SDS011;2876;51.738;10.050;2023-07-22T12:56:05;5.90;;;5.37;;
5702;SDS011;2876;51.738;10.050;2023-07-22T13:02:07;5.43;;;4.93;;
5702;SDS011;2876;51.738;10.050;2023-07-22T13:08:09;9.40;;;5.33;;
5702;SDS011;2876;51.738;10.050;2023-07-22T13:14:11;8.60;;;5.43;;
5702;SDS011;2876;51.738;10.050;2023-07-22T13:20:13;5.73;;;5.13;;
5702;SDS011;2876;51.738;10.050;2023-07-22T13:26:17;6.43;;;5.70;;
5702;SDS011;2876;51.738;10.050;2023-07-22T13:32:18;7.47;;;5.13;;
5702;SDS011;2876;51.738;10.050;2023-07-22T13:38:20;4.90;;;4.33;;
5702;SDS011;2876;51.738;10.050;2023-07-22T13:44:22;9.63;;;5.53;;
5702;SDS011;2876;51.738;10.050;2023-07-22T13:50:24;16.13;;;6.53;;
5702;SDS011;2876;51.738;10.050;2023-07-22T13:56:26;4.97;;;4.47;;
5702;SDS011;2876;51.738;10.050;2023-07-22T14:02:28;6.33;;;4.77;;
5702;SDS011;2876;51.738;10.050;2023-07-22T14:08:30;5.10;;;4.60;;
5702;SDS011;2876;51.738;10.050;2023-07-22T14:14:32;4.80;;;4.30;;
5702;SDS011;2876;51.738;10.050;2023-07-22T14:20:34;4.60;;;4.20;;
5702;SDS011;2876;51.738;10.050;2023-07-22T14:26:36;6.77;;;4.47;;
5702;SDS011;2876;51.738;10.050;2023-07-22T14:32:38;6.33;;;4.20;;
5702;SDS011;2876;51.738;10.050;2023-07-22T14:38:40;4.70;;;4.20;;
5702;SDS011;2876;51.738;10.050;2023-07-22T14:44:42;4.20;;;3.73;;
5702;SDS011;2876;51.738;10.050;2023-07-22T14:50:44;9.03;;;3.83;;
5702;SDS011;2876;51.738;10.050;2023-07-22T14:56:46;5.30;;;3.67;;
5702;SDS011;2876;51.738;10.050;2023-07-22T15:02:48;3.53;;;3.20;;
5702;SDS011;2876;51.738;10.050;2023-07-22T15:08:50;4.30;;;3.43;;
5702;SDS011;2876;51.738;10.050;2023-07-22T15:14:52;3.30;;;3.00;;
5702;SDS011;2876;51.738;10.050;2023-07-22T15:20:54;3.80;;;3.27;;
5702;SDS011;2876;51.738;10.050;2023-07-22T15:26:56;3.70;;;3.20;;
5702;SDS011;2876;51.738;10.050;2023-07-22T15:32:58;3.80;;;3.30;;
5702;SDS011;2876;51.738;10.050;2023-07-22T15:39:00;4.73;;;3.70;;
5702;SDS011;2876;51.738;10.050;2023-07-22T15:45:02;3.97;;;3.40;;
5702;SDS011;2876;51.738;10.050;2023-07-22T15:51:05;5.20;;;3.90;;
5702;SDS011;2876;51.738;10.050;2023-07-22T15:57:07;3.50;;;3.20;;
5702;SDS011;2876;51.738;10.050;2023-07-22T16:03:10;3.40;;;2.80;;
5702;SDS011;2876;51.738;10.050;2023-07-22T16:09:13;4.17;;;3.00;;
5702;SDS011;2876;51.738;10.050;2023-07-22T16:15:16;5.03;;;3.27;;
5702;SDS011;2876;51.738;10.050;2023-07-22T16:21:18;14.00;;;3.37;;
5702;SDS011;2876;51.738;10.050;2023-07-22T16:27:21;3.07;;;2.80;;
5702;SDS011;2876;51.738;10.050;2023-07-22T16:33:23;3.40;;;3.07;;
5702;SDS011;2876;51.738;10.050;2023-07-22T16:39:25;4.10;;;3.57;;
5702;SDS011;2876;51.738;10.050;2023-07-22T16:45:26;3.50;;;3.20;;
5702;SDS011;2876;51.738;10.050;2023-07-22T16:51:28;4.17;;;3.77;;
5702;SDS011;2876;51.738;10.050;2023-07-22T16:57:31;4.73;;;3.50;;
5702;SDS011;2876;51.738;10.050;2023-07-22T17:03:33;11.23;;;3.60;;
5702;SDS011;2876;51.738;10.050;2023-07-22T17:09:35;10.23;;;3.27;;
5702;SDS011;2876;51.738;10.050;2023-07-22T17:15:37;3.80;;;3.00;;
5702;SDS011;2876;51.738;10.050;2023-07-22T17:21:39;4.30;;;3.90;;
5702;SDS011;2876;51.738;10.050;2023-07-22T17:27:41;3.90;;;3.33;;
5702;SDS011;2876;51.738;10.050;2023-07-22T17:33:43;3.07;;;2.57;;
5702;SDS011;2876;51.738;10.050;2023-07-22T17:39:45;4.87;;;3.40;;
5702;SDS011;2876;51.738;10.050;2023-07-22T17:45:47;8.83;;;3.43;;
5702;SDS011;2876;51.738;10.050;2023-07-22T17:51:49;3.93;;;3.00;;
5702;SDS011;2876;51.738;10.050;2023-07-22T17:57:51;3.70;;;3.30;;
5702;SDS011;2876;51.738;10.050;2023-07-22T18:03:53;3.87;;;3.40;;
5702;SDS011;2876;51.738;10.050;2023-07-22T18:09:55;5.67;;;4.10;;
5702;SDS011;2876;51.738;10.050;2023-07-22T18:15:57;6.17;;;3.97;;
5702;SDS011;2876;51.738;10.050;2023-07-22T18:21:59;5.47;;;4.40;;
5702;SDS011;2876;51.738;10.050;2023-07-22T18:28:01;10.53;;;6.80;;
5702;SDS011;2876;51.738;10.050;2023-07-22T18:34:03;19.10;;;10.03;;
5702;SDS011;2876;51.738;10.050;2023-07-22T18:40:05;5.97;;;4.07;;
5702;SDS011;2876;51.738;10.050;2023-07-22T18:46:11;3.90;;;3.50;;
5702;SDS011;2876;51.738;10.050;2023-07-22T18:52:18;5.23;;;3.80;;
5702;SDS011;2876;51.738;10.050;2023-07-22T18:58:20;5.70;;;3.90;;
5702;SDS011;2876;51.738;10.050;2023-07-22T19:04:22;5.10;;;3.50;;
5702;SDS011;2876;51.738;10.050;2023-07-22T19:10:24;9.27;;;4.73;;
5702;SDS011;2876;51.738;10.050;2023-07-22T19:16:26;7.60;;;4.70;;
5702;SDS011;2876;51.738;10.050;2023-07-22T19:22:28;6.07;;;4.40;;
5702;SDS011;2876;51.738;10.050;2023-07-22T19:28:30;4.93;;;3.23;;
5702;SDS011;2876;51.738;10.050;2023-07-22T19:34:33;9.23;;;3.47;;
5702;SDS011;2876;51.738;10.050;2023-07-22T19:40:35;7.37;;;4.73;;
5702;SDS011;2876;51.738;10.050;2023-07-22T19:46:36;7.00;;;3.90;;
5702;SDS011;2876;51.738;10.050;2023-07-22T19:58:42;17.80;;;10.97;;
5702;SDS011;2876;51.738;10.050;2023-07-22T20:04:44;4.20;;;3.53;;
5702;SDS011;2876;51.738;10.050;2023-07-22T20:10:47;4.97;;;3.20;;
5702;SDS011;2876;51.738;10.050;2023-07-22T20:16:49;5.60;;;3.57;;
5702;SDS011;2876;51.738;10.050;2023-07-22T20:22:51;6.13;;;4.03;;
5702;SDS011;2876;51.738;10.050;2023-07-22T20:28:53;9.37;;;5.37;;
5702;SDS011;2876;51.738;10.050;2023-07-22T20:34:56;7.50;;;4.37;;
5702;SDS011;2876;51.738;10.050;2023-07-22T20:41:02;7.10;;;3.60;;
5702;SDS011;2876;51.738;10.050;2023-07-22T20:47:06;11.67;;;5.80;;
5702;SDS011;2876;51.738;10.050;2023-07-22T20:53:08;58.00;;;29.43;;
5702;SDS011;2876;51.738;10.050;2023-07-22T20:59:10;5.47;;;3.50;;
5702;SDS011;2876;51.738;10.050;2023-07-22T21:05:12;10.00;;;4.43;;
5702;SDS011;2876;51.738;10.050;2023-07-22T21:11:14;16.60;;;12.50;;
5702;SDS011;2876;51.738;10.050;2023-07-22T21:17:16;4.10;;;3.70;;
5702;SDS011;2876;51.738;10.050;2023-07-22T21:23:18;4.87;;;4.10;;
5702;SDS011;2876;51.738;10.050;2023-07-22T21:29:19;6.10;;;3.90;;
5702;SDS011;2876;51.738;10.050;2023-07-22T21:35:21;15.37;;;7.40;;
5702;SDS011;2876;51.738;10.050;2023-07-22T21:41:23;5.97;;;4.80;;
5702;SDS011;2876;51.738;10.050;2023-07-22T21:47:26;7.33;;;4.40;;
5702;SDS011;2876;51.738;10.050;2023-07-22T21:53:28;4.77;;;4.27;;
5702;SDS011;2876;51.738;10.050;2023-07-22T21:59:31;5.10;;;3.97;;
5702;SDS011;2876;51.738;10.050;2023-07-22T22:05:33;4.10;;;3.70;;
5702;SDS011;2876;51.738;10.050;2023-07-22T22:11:35;4.90;;;3.83;;
5702;SDS011;2876;51.738;10.050;2023-07-22T22:17:37;6.20;;;5.00;;
5702;SDS011;2876;51.738;10.050;2023-07-22T22:23:58;6.80;;;3.93;;
5702;SDS011;2876;51.738;10.050;2023-07-22T22:30:00;4.67;;;4.20;;
5702;SDS011;2876;51.738;10.050;2023-07-22T22:36:02;5.70;;;4.80;;
5702;SDS011;2876;51.738;10.050;2023-07-22T22:42:05;5.03;;;4.43;;
5702;SDS011;2876;51.738;10.050;2023-07-22T22:48:07;8.00;;;5.30;;
5702;SDS011;2876;51.738;10.050;2023-07-22T22:54:09;7.67;;;5.40;;
5702;SDS011;2876;51.738;10.050;2023-07-22T23:00:11;6.90;;;5.97;;
5702;SDS011;2876;51.738;10.050;2023-07-22T23:06:14;10.13;;;5.97;;
5702;SDS011;2876;51.738;10.050;2023-07-22T23:12:21;10.00;;;5.13;;
5702;SDS011;2876;51.738;10.050;2023-07-22T23:18:23;4.90;;;4.40;;
5702;SDS011;2876;51.738;10.050;2023-07-22T23:24:25;6.27;;;5.23;;
5702;SDS011;2876;51.738;10.050;2023-07-22T23:30:27;7.73;;;4.77;;
5702;SDS011;2876;51.738;10.050;2023-07-22T23:36:29;5.90;;;4.83;;
5702;SDS011;2876;51.738;10.050;2023-07-22T23:42:31;7.43;;;4.87;;
5702;SDS011;2876;51.738;10.050;2023-07-22T23:48:33;6.33;;;5.23;;
5702;SDS011;2876;51.738;10.050;2023-07-22T23:54:35;6.73;;;5.00;;
